Time;durP1;ratioP1;P1;durP2;ratioP2;P2;SDS_P1;SDS_P2;PMS_P1;PMS_P2;Temp;Humidity;BMP_temperature;BMP_pressure;BME280_temperature;BME280_humidity;BME280_pressure;Samples;Min_cycle;Max_cycle;Signal;HPM_P1;HPM_P2
2021/12/01 00:02:14;;;;;;;0.30;0.20;;;3.60;99.90;;;;;;5065751;28;21042;-87
2021/12/01 00:04:42;;;;;;;0.30;0.10;;;3.60;99.90;;;;;;5065841;28;20436;-87
2021/12/01 00:07:09;;;;;;;0.30;0.10;;;3.60;99.90;;;;;;5062502;28;21188;-86
2021/12/01 00:09:36;;;;;;;0.30;0.10;;;3.60;99.90;;;;;;5056297;28;20930;-87
2021/12/01 00:12:03;;;;;;;0.30;0.10;;;3.60;99.90;;;;;;5075426;28;20463;-86
2021/12/01 00:14:30;;;;;;;0.30;0.10;;;3.60;99.90;;;;;;5073550;28;20470;-87
2021/12/01 00:16:57;;;;;;;0.30;0.10;;;3.70;99.90;;;;;;5063948;28;20542;-89
2021/12/01 00:19:24;;;;;;;0.30;0.10;;;3.60;99.90;;;;;;5065917;28;20485;-87
2021/12/01 00:21:53;;;;;;;0.30;0.10;;;3.70;99.90;;;;;;5066835;28;20947;-87
2021/12/01 00:24:20;;;;;;;0.30;0.10;;;3.70;99.90;;;;;;5063981;28;20936;-87
2021/12/01 00:26:47;;;;;;;0.30;0.10;;;3.80;99.90;;;;;;5065808;28;20545;-87
2021/12/01 00:29:14;;;;;;;0.30;0.10;;;3.80;99.90;;;;;;5066448;28;20450;-86
2021/12/01 00:31:42;;;;;;;0.30;0.10;;;3.80;99.90;;;;;;5067816;28;20452;-87
2021/12/01 00:34:09;;;;;;;0.30;0.10;;;3.90;99.90;;;;;;5068580;28;20436;-87
2021/12/01 00:36:36;;;;;;;0.30;0.10;;;3.90;99.90;;;;;;5066981;28;20612;-86
2021/12/01 00:39:05;;;;;;;0.30;0.10;;;3.90;99.90;;;;;;5069008;28;20509;-87
2021/12/01 00:41:33;;;;;;;0.30;0.10;;;4.00;99.90;;;;;;5068191;28;20502;-86
2021/12/01 00:44:01;;;;;;;0.30;0.10;;;4.10;99.90;;;;;;5067737;28;20446;-87
2021/12/01 00:46:38;;;;;;;0.30;0.10;;;4.00;99.90;;;;;;5067008;28;21018;-87
2021/12/01 00:49:05;;;;;;;0.30;0.10;;;4.10;99.90;;;;;;5068008;28;20439;-85
2021/12/01 00:51:32;;;;;;;0.30;0.10;;;4.00;99.90;;;;;;5070881;28;20815;-86
2021/12/01 00:53:59;;;;;;;0.30;0.10;;;4.00;99.90;;;;;;5070883;28;20524;-86
2021/12/01 00:56:27;;;;;;;0.30;0.10;;;4.00;99.90;;;;;;5068093;28;20479;-86
2021/12/01 00:58:54;;;;;;;0.30;0.10;;;4.00;99.90;;;;;;5069337;28;21016;-86
2021/12/01 01:01:21;;;;;;;0.30;0.10;;;4.00;99.90;;;;;;5067408;28;20470;-86
2021/12/01 01:03:49;;;;;;;0.30;0.10;;;4.00;99.90;;;;;;5066722;28;21052;-86
2021/12/01 01:06:16;;;;;;;0.30;0.10;;;4.10;99.90;;;;;;5068797;28;20533;-86
2021/12/01 01:08:45;;;;;;;0.30;0.10;;;4.00;99.90;;;;;;5074750;28;20446;-87
2021/12/01 01:16:44;;;;;;;0.30;0.10;;;4.10;99.90;;;;;;5070046;28;20524;-86
2021/12/01 01:19:14;;;;;;;0.30;0.10;;;4.10;99.90;;;;;;5067244;28;20465;-86
2021/12/01 01:21:44;;;;;;;0.30;0.10;;;4.20;99.90;;;;;;5069652;28;20513;-87
2021/12/01 01:24:11;;;;;;;0.30;0.10;;;4.10;99.90;;;;;;5070887;28;20535;-85
2021/12/01 01:26:40;;;;;;;0.30;0.10;;;4.10;99.90;;;;;;5065875;28;20468;-86
2021/12/01 01:29:09;;;;;;;0.30;0.10;;;4.10;99.90;;;;;;5067973;28;21192;-87
2021/12/01 01:31:37;;;;;;;0.30;0.10;;;4.20;99.90;;;;;;5067291;28;20935;-86
2021/12/01 01:34:06;;;;;;;0.30;0.10;;;4.20;99.90;;;;;;5071080;28;20436;-86
2021/12/01 01:36:33;;;;;;;0.30;0.10;;;4.20;99.90;;;;;;5070040;28;20488;-86
2021/12/01 01:39:00;;;;;;;0.30;0.10;;;4.20;99.90;;;;;;5070634;28;20949;-86
2021/12/01 01:41:27;;;;;;;0.30;0.10;;;4.20;99.90;;;;;;5069736;28;20455;-88
2021/12/01 01:43:54;;;;;;;0.30;0.10;;;4.30;99.90;;;;;;5070138;28;20436;-87
2021/12/01 01:46:23;;;;;;;0.30;0.10;;;4.30;99.90;;;;;;5057517;28;20448;-88
2021/12/01 01:48:53;;;;;;;0.30;0.10;;;4.20;99.90;;;;;;5069166;28;20501;-87
2021/12/01 01:51:22;;;;;;;0.30;0.10;;;4.30;99.90;;;;;;5070155;28;20451;-86
2021/12/01 01:53:53;;;;;;;0.30;0.10;;;4.30;99.90;;;;;;5067508;28;20479;-87
2021/12/01 01:56:20;;;;;;;0.30;0.10;;;4.20;99.90;;;;;;5069856;28;20533;-87
2021/12/01 01:58:47;;;;;;;0.30;0.10;;;4.20;99.90;;;;;;5069926;28;20496;-87
2021/12/01 02:01:26;;;;;;;0.30;0.10;;;4.20;99.90;;;;;;5069350;28;20472;-90
2021/12/01 02:03:55;;;;;;;0.30;0.10;;;4.20;99.90;;;;;;5070790;28;20949;-88
2021/12/01 02:06:23;;;;;;;0.30;0.10;;;4.30;99.90;;;;;;5079276;28;20493;-88
2021/12/01 02:08:52;;;;;;;0.30;0.10;;;4.30;99.90;;;;;;5087804;28;20459;-88
2021/12/01 02:11:21;;;;;;;0.30;0.10;;;4.30;99.90;;;;;;5072575;28;20475;-87
2021/12/01 02:13:48;;;;;;;0.30;0.10;;;4.30;99.90;;;;;;5068179;28;20471;-88
2021/12/01 02:16:17;;;;;;;0.30;0.10;;;4.40;99.90;;;;;;5060013;28;20560;-87
2021/12/01 02:18:45;;;;;;;0.30;0.10;;;4.40;99.90;;;;;;5069304;28;20505;-86
2021/12/01 02:21:15;;;;;;;0.30;0.10;;;4.40;99.90;;;;;;5066567;28;20460;-87
2021/12/01 02:23:44;;;;;;;0.30;0.13;;;4.40;99.90;;;;;;5060854;28;20440;-87
2021/12/01 02:26:12;;;;;;;0.30;0.10;;;4.40;99.90;;;;;;5065972;28;20576;-87
2021/12/01 02:28:40;;;;;;;0.30;0.10;;;4.40;99.90;;;;;;5068249;28;20460;-86
2021/12/01 02:31:07;;;;;;;0.30;0.10;;;4.40;99.90;;;;;;5068760;28;20805;-88
2021/12/01 02:33:34;;;;;;;0.30;0.10;;;4.40;99.90;;;;;;5069875;28;20540;-88
2021/12/01 02:36:02;;;;;;;0.30;0.10;;;4.40;99.90;;;;;;5069587;28;20511;-85
2021/12/01 02:38:31;;;;;;;0.30;0.10;;;4.40;99.90;;;;;;5067217;28;20456;-86
2021/12/01 02:40:57;;;;;;;0.30;0.10;;;4.40;99.90;;;;;;5068729;28;20505;-87
2021/12/01 02:43:24;;;;;;;0.30;0.10;;;4.40;99.90;;;;;;5069612;28;20450;-85
2021/12/01 02:45:53;;;;;;;0.30;0.10;;;4.40;99.90;;;;;;5068715;28;20436;-86
2021/12/01 02:48:21;;;;;;;0.30;0.10;;;4.40;99.90;;;;;;5069403;28;20566;-85
2021/12/01 02:50:49;;;;;;;0.30;0.10;;;4.40;99.90;;;;;;5068756;28;21047;-85
2021/12/01 02:53:20;;;;;;;0.30;0.10;;;4.40;99.90;;;;;;5069032;28;20444;-85
2021/12/01 02:55:54;;;;;;;0.30;0.10;;;4.40;99.90;;;;;;5056384;28;20515;-85
2021/12/01 02:58:22;;;;;;;0.30;0.10;;;4.40;99.90;;;;;;5068779;28;20435;-84
2021/12/01 03:00:50;;;;;;;0.30;0.10;;;4.40;99.90;;;;;;5068487;28;21165;-84
2021/12/01 03:03:18;;;;;;;0.30;0.10;;;4.40;99.90;;;;;;5081176;28;20503;-85
2021/12/01 03:05:47;;;;;;;0.30;0.10;;;4.50;99.90;;;;;;5081538;28;20462;-85
2021/12/01 03:08:15;;;;;;;0.30;0.10;;;4.40;99.90;;;;;;5065432;28;20522;-84
2021/12/01 03:10:43;;;;;;;0.30;0.10;;;4.50;99.90;;;;;;5066135;28;20510;-85
2021/12/01 03:13:12;;;;;;;0.30;0.10;;;4.50;99.90;;;;;;5069268;28;20490;-85
2021/12/01 03:15:39;;;;;;;0.30;0.10;;;4.50;99.90;;;;;;5066087;28;20521;-86
2021/12/01 03:18:06;;;;;;;0.30;0.10;;;4.50;99.90;;;;;;5063138;28;20520;-86
2021/12/01 03:20:33;;;;;;;0.30;0.10;;;4.50;99.90;;;;;;5069487;28;20524;-85
2021/12/01 03:23:00;;;;;;;0.30;0.10;;;4.60;99.90;;;;;;5066687;28;20444;-85
2021/12/01 03:25:28;;;;;;;0.30;0.10;;;4.60;99.90;;;;;;5067732;28;20541;-84
2021/12/01 03:27:55;;;;;;;0.30;0.20;;;4.60;99.90;;;;;;5062664;28;20523;-84
2021/12/01 03:30:24;;;;;;;0.30;0.10;;;4.60;99.90;;;;;;5067166;28;20464;-86
2021/12/01 03:32:52;;;;;;;0.30;0.10;;;4.70;99.90;;;;;;5067554;28;20464;-84
2021/12/01 03:35:19;;;;;;;0.30;0.10;;;4.60;99.90;;;;;;5069362;28;20443;-86
2021/12/01 03:37:48;;;;;;;0.30;0.10;;;4.60;99.90;;;;;;5069136;28;20556;-86
2021/12/01 03:40:16;;;;;;;0.30;0.10;;;4.60;99.90;;;;;;5067247;28;20962;-85
2021/12/01 03:42:44;;;;;;;0.30;0.10;;;4.60;99.90;;;;;;5065625;28;20448;-87
2021/12/01 03:45:14;;;;;;;0.30;0.10;;;4.60;99.90;;;;;;5068004;28;20535;-84
2021/12/01 03:47:43;;;;;;;0.30;0.10;;;4.60;99.90;;;;;;5063562;28;20437;-87
2021/12/01 03:50:10;;;;;;;0.30;0.10;;;4.60;99.90;;;;;;5067266;28;20512;-87
2021/12/01 03:52:37;;;;;;;0.30;0.10;;;4.60;99.90;;;;;;5067905;28;20432;-86
2021/12/01 03:55:06;;;;;;;0.30;0.10;;;4.50;99.90;;;;;;5064379;28;20468;-85
2021/12/01 03:57:33;;;;;;;0.30;0.10;;;4.50;99.90;;;;;;5069514;28;20472;-85
2021/12/01 04:00:00;;;;;;;0.30;0.10;;;4.60;99.90;;;;;;5077758;28;20478;-85
2021/12/01 04:02:27;;;;;;;0.30;0.10;;;4.60;99.90;;;;;;5083651;28;20497;-86
2021/12/01 04:04:55;;;;;;;0.30;0.10;;;4.70;99.90;;;;;;5074362;28;20452;-85
2021/12/01 04:07:22;;;;;;;0.30;0.20;;;4.70;99.90;;;;;;5059653;28;20935;-85
2021/12/01 04:09:50;;;;;;;0.93;0.60;;;4.70;99.90;;;;;;5063071;28;20506;-85
2021/12/01 04:12:18;;;;;;;0.30;0.10;;;4.80;99.90;;;;;;5065256;28;20950;-85
2021/12/01 04:14:46;;;;;;;0.30;0.10;;;4.90;99.90;;;;;;5064597;28;20511;-86
2021/12/01 04:17:13;;;;;;;0.30;0.10;;;4.90;99.90;;;;;;5067437;28;20479;-89
2021/12/01 04:19:40;;;;;;;0.30;0.10;;;4.80;99.90;;;;;;5065185;28;20946;-89
2021/12/01 04:22:08;;;;;;;0.30;0.20;;;4.90;99.90;;;;;;5065796;28;20440;-88
2021/12/01 04:24:36;;;;;;;0.30;0.10;;;4.80;99.90;;;;;;5068447;28;20440;-86
2021/12/01 04:27:03;;;;;;;0.40;0.20;;;4.80;99.90;;;;;;5069989;28;20518;-86
2021/12/01 04:29:30;;;;;;;0.30;0.10;;;4.80;99.90;;;;;;5069553;28;20440;-89
2021/12/01 04:31:57;;;;;;;0.30;0.10;;;4.70;99.90;;;;;;5068286;28;20432;-87
2021/12/01 04:34:24;;;;;;;0.30;0.10;;;4.70;99.90;;;;;;5071004;28;20464;-86
2021/12/01 04:36:52;;;;;;;0.30;0.10;;;4.80;99.90;;;;;;5069044;28;20558;-87
2021/12/01 04:39:21;;;;;;;0.30;0.10;;;4.90;99.90;;;;;;5071999;28;20455;-87
2021/12/01 04:41:51;;;;;;;0.30;0.10;;;4.90;99.90;;;;;;5067344;28;20510;-87
2021/12/01 04:44:22;;;;;;;0.40;0.30;;;4.90;99.90;;;;;;5070736;28;20460;-86
2021/12/01 04:46:52;;;;;;;0.30;0.10;;;4.80;99.90;;;;;;5071761;28;20440;-86
2021/12/01 04:49:21;;;;;;;0.30;0.10;;;4.80;99.90;;;;;;5069406;28;20450;-87
2021/12/01 04:51:51;;;;;;;0.30;0.10;;;4.80;99.90;;;;;;5067170;28;20443;-85
2021/12/01 04:54:20;;;;;;;0.30;0.10;;;4.80;99.90;;;;;;5070271;28;20452;-85
2021/12/01 04:56:48;;;;;;;0.30;0.10;;;4.80;99.90;;;;;;5082035;28;20521;-86
2021/12/01 04:59:16;;;;;;;0.30;0.13;;;4.70;99.90;;;;;;5090500;28;20436;-85
2021/12/01 05:01:46;;;;;;;0.30;0.10;;;4.60;99.90;;;;;;5070938;28;20487;-91
2021/12/01 05:04:14;;;;;;;0.30;0.10;;;4.60;99.90;;;;;;5066157;28;21011;-86
2021/12/01 05:06:41;;;;;;;0.30;0.10;;;4.60;99.90;;;;;;5071574;28;20460;-87
2021/12/01 05:09:09;;;;;;;0.30;0.10;;;4.60;99.90;;;;;;5068701;28;20440;-87
2021/12/01 05:11:38;;;;;;;0.30;0.10;;;4.60;99.90;;;;;;5071340;28;20451;-87
2021/12/01 05:14:05;;;;;;;0.30;0.10;;;4.60;99.90;;;;;;5067724;28;20463;-87
2021/12/01 05:16:35;;;;;;;0.30;0.10;;;4.70;99.90;;;;;;5069049;28;20436;-87
2021/12/01 05:19:02;;;;;;;0.30;0.10;;;4.70;99.90;;;;;;5070611;28;21000;-87
2021/12/01 05:21:29;;;;;;;0.30;0.10;;;4.80;99.90;;;;;;5067926;28;20445;-87
2021/12/01 05:23:56;;;;;;;0.30;0.10;;;4.80;99.90;;;;;;5068678;28;20508;-87
2021/12/01 05:26:23;;;;;;;0.30;0.10;;;4.80;99.90;;;;;;5059031;28;20471;-87
2021/12/01 05:28:51;;;;;;;0.30;0.10;;;4.80;99.90;;;;;;5068327;28;20943;-90
2021/12/01 05:31:18;;;;;;;0.30;0.10;;;4.80;99.90;;;;;;5068775;28;20510;-87
2021/12/01 05:33:45;;;;;;;0.30;0.10;;;4.90;99.90;;;;;;5065788;28;20457;-88
2021/12/01 05:36:13;;;;;;;0.30;0.10;;;4.90;99.90;;;;;;5069604;28;20509;-87
2021/12/01 05:38:40;;;;;;;0.30;0.10;;;4.90;99.90;;;;;;5070212;28;20515;-86
2021/12/01 05:41:07;;;;;;;0.30;0.10;;;4.90;99.90;;;;;;5066944;28;20440;-87
2021/12/01 05:43:34;;;;;;;0.30;0.10;;;4.90;99.90;;;;;;5070229;28;20436;-87
2021/12/01 05:46:03;;;;;;;0.30;0.10;;;4.90;99.90;;;;;;5070717;28;20509;-85
2021/12/01 05:48:30;;;;;;;0.30;0.10;;;4.90;99.90;;;;;;5070926;28;20464;-87
2021/12/01 05:50:57;;;;;;;0.30;0.10;;;4.90;99.90;;;;;;5072272;28;20515;-89
2021/12/01 05:53:24;;;;;;;0.30;0.10;;;5.00;99.90;;;;;;5072107;28;20436;-89
2021/12/01 05:55:51;;;;;;;0.30;0.10;;;5.00;99.90;;;;;;5093857;28;20443;-89
2021/12/01 05:58:18;;;;;;;0.30;0.10;;;5.00;99.90;;;;;;5095951;28;20499;-89
2021/12/01 06:00:45;;;;;;;0.30;0.10;;;5.00;99.90;;;;;;5070032;28;20460;-90
2021/12/01 06:03:13;;;;;;;0.30;0.10;;;5.00;99.90;;;;;;5067884;28;20447;-90
2021/12/01 06:05:43;;;;;;;0.30;0.10;;;4.90;99.90;;;;;;5063098;28;20560;-89
2021/12/01 06:08:10;;;;;;;0.30;0.10;;;4.90;99.90;;;;;;5065380;28;21093;-89
2021/12/01 06:10:38;;;;;;;0.30;0.10;;;4.90;99.90;;;;;;5063476;28;20460;-91
2021/12/01 06:13:05;;;;;;;0.30;0.10;;;4.90;99.90;;;;;;5063383;28;20451;-90
2021/12/01 06:15:33;;;;;;;0.30;0.10;;;5.00;99.90;;;;;;5061175;28;20456;-90
2021/12/01 06:18:00;;;;;;;0.30;0.10;;;5.00;99.90;;;;;;5063073;28;20898;-91
2021/12/01 06:20:28;;;;;;;0.30;0.10;;;5.00;99.90;;;;;;5065458;28;20549;-89
2021/12/01 06:22:56;;;;;;;0.30;0.10;;;4.90;99.90;;;;;;5057875;28;20469;-89
2021/12/01 06:25:23;;;;;;;0.30;0.10;;;4.90;99.90;;;;;;5055064;28;20469;-90
2021/12/01 06:27:50;;;;;;;0.30;0.20;;;4.90;99.90;;;;;;5060165;28;20449;-91
2021/12/01 06:30:17;;;;;;;0.30;0.20;;;4.90;99.90;;;;;;5059671;28;20449;-90
2021/12/01 06:32:44;;;;;;;0.30;0.10;;;5.00;99.90;;;;;;5066692;28;20488;-90
2021/12/01 06:35:14;;;;;;;0.30;0.10;;;4.90;99.90;;;;;;5055537;28;20474;-90
2021/12/01 06:37:43;;;;;;;0.30;0.10;;;4.90;99.90;;;;;;5066389;28;20578;-89
2021/12/01 06:40:12;;;;;;;0.30;0.10;;;4.90;99.90;;;;;;5063342;28;20907;-90
2021/12/01 06:42:39;;;;;;;0.30;0.20;;;5.00;99.90;;;;;;5056874;28;20848;-90
2021/12/01 06:45:09;;;;;;;0.30;0.10;;;5.00;99.90;;;;;;5055444;28;20473;-90
2021/12/01 06:47:36;;;;;;;0.30;0.10;;;5.00;99.90;;;;;;5051363;28;20544;-90
2021/12/01 06:50:04;;;;;;;0.30;0.10;;;5.00;99.90;;;;;;5064894;28;20452;-89
2021/12/01 06:52:31;;;;;;;0.30;0.10;;;5.00;99.90;;;;;;5085968;28;20449;-89
2021/12/01 06:55:00;;;;;;;0.53;0.47;;;4.90;99.90;;;;;;5077362;28;20525;-90
2021/12/01 06:57:27;;;;;;;0.30;0.20;;;4.90;99.90;;;;;;5073417;28;20471;-90
2021/12/01 06:59:54;;;;;;;0.30;0.10;;;4.90;99.90;;;;;;5070789;28;20905;-89
2021/12/01 07:02:22;;;;;;;0.30;0.10;;;4.90;99.90;;;;;;5070201;28;20464;-91
2021/12/01 07:04:48;;;;;;;0.40;0.30;;;4.90;99.90;;;;;;5069645;28;20444;-90
2021/12/01 07:07:15;;;;;;;0.30;0.10;;;4.90;99.90;;;;;;5069969;28;20509;-89
2021/12/01 07:09:45;;;;;;;0.30;0.20;;;4.90;99.90;;;;;;5068931;28;20486;-89
2021/12/01 07:12:14;;;;;;;0.30;0.10;;;4.90;99.90;;;;;;5067065;28;20490;-89
2021/12/01 07:14:41;;;;;;;0.30;0.10;;;4.90;99.90;;;;;;5060546;28;20578;-89
2021/12/01 07:17:08;;;;;;;0.30;0.10;;;5.00;99.90;;;;;;5064311;28;20505;-91
2021/12/01 07:19:35;;;;;;;0.30;0.10;;;5.00;99.90;;;;;;5065884;28;20499;-89
2021/12/01 07:22:03;;;;;;;0.30;0.10;;;5.00;99.90;;;;;;5067288;28;20452;-89
2021/12/01 07:24:30;;;;;;;0.30;0.10;;;5.00;99.90;;;;;;5060467;28;20542;-89
2021/12/01 07:26:57;;;;;;;0.30;0.10;;;5.10;99.90;;;;;;5069338;28;20550;-89
2021/12/01 07:29:26;;;;;;;0.30;0.20;;;5.10;99.90;;;;;;5067462;28;20456;-90
2021/12/01 07:31:53;;;;;;;0.30;0.10;;;5.10;99.90;;;;;;5062049;28;20466;-91
2021/12/01 07:34:20;;;;;;;0.30;0.10;;;5.10;99.90;;;;;;5067088;28;20461;-90
2021/12/01 07:36:48;;;;;;;0.30;0.10;;;5.10;99.90;;;;;;5072083;28;20464;-90
2021/12/01 07:39:15;;;;;;;0.30;0.10;;;5.20;99.90;;;;;;5062122;28;21091;-91
2021/12/01 07:41:42;;;;;;;0.30;0.10;;;5.30;99.90;;;;;;5058851;28;20464;-91
2021/12/01 07:44:09;;;;;;;0.30;0.13;;;5.40;99.90;;;;;;5062084;28;20459;-90
2021/12/01 07:46:37;;;;;;;1.17;0.53;;;5.40;99.90;;;;;;5062416;28;20505;-92
2021/12/01 07:49:04;;;;;;;0.30;0.10;;;5.50;99.90;;;;;;5087617;28;20489;-90
2021/12/01 07:51:32;;;;;;;0.30;0.13;;;5.50;99.90;;;;;;5082634;28;20448;-91
2021/12/01 07:53:59;;;;;;;0.30;0.10;;;5.50;99.90;;;;;;5060086;28;20990;-89
2021/12/01 07:56:26;;;;;;;0.30;0.10;;;5.50;99.90;;;;;;5061662;28;20483;-90
2021/12/01 07:58:53;;;;;;;0.30;0.10;;;5.40;99.90;;;;;;5068820;28;20474;-89
2021/12/01 08:01:20;;;;;;;0.30;0.17;;;5.40;99.90;;;;;;5071780;28;20474;-89
2021/12/01 08:03:48;;;;;;;0.30;0.20;;;5.30;99.90;;;;;;5072358;28;20611;-89
2021/12/01 08:06:15;;;;;;;0.30;0.20;;;5.40;99.90;;;;;;5068741;28;20459;-89
2021/12/01 08:08:42;;;;;;;0.30;0.10;;;5.40;99.90;;;;;;5071985;28;20440;-89
2021/12/01 08:11:09;;;;;;;0.30;0.10;;;5.30;99.90;;;;;;5070027;28;20509;-89
2021/12/01 08:13:36;;;;;;;2.20;2.10;;;5.40;99.90;;;;;;5063502;28;20509;-88
2021/12/01 08:16:03;;;;;;;0.30;0.10;;;5.40;99.90;;;;;;5061572;28;20459;-89
2021/12/01 08:18:31;;;;;;;0.30;0.10;;;5.40;99.90;;;;;;5057986;28;20892;-91
2021/12/01 08:20:59;;;;;;;0.30;0.10;;;5.40;99.90;;;;;;5061844;28;20462;-90
2021/12/01 08:23:26;;;;;;;0.30;0.10;;;5.60;99.90;;;;;;5061084;28;20521;-90
2021/12/01 08:25:53;;;;;;;0.30;0.10;;;5.50;99.90;;;;;;5059627;28;20480;-91
2021/12/01 08:28:20;;;;;;;0.30;0.17;;;5.50;99.90;;;;;;5058836;28;20506;-90
2021/12/01 08:30:47;;;;;;;0.30;0.10;;;5.60;99.90;;;;;;5066530;28;20783;-90
2021/12/01 08:33:14;;;;;;;1.17;1.17;;;5.60;99.90;;;;;;5057855;28;20438;-90
2021/12/01 08:35:41;;;;;;;0.97;0.97;;;5.70;99.90;;;;;;5065002;28;20457;-90
2021/12/01 08:38:09;;;;;;;0.30;0.20;;;5.70;99.90;;;;;;5058310;28;20479;-91
2021/12/01 08:40:37;;;;;;;0.90;0.87;;;5.70;99.90;;;;;;5056082;28;20470;-89
2021/12/01 08:43:04;;;;;;;0.30;0.20;;;5.80;99.90;;;;;;5069156;28;20847;-90
2021/12/01 08:45:33;;;;;;;0.30;0.10;;;6.00;99.90;;;;;;5091629;28;20466;-90
2021/12/01 08:48:00;;;;;;;0.40;0.40;;;6.10;99.90;;;;;;5076864;28;20457;-90
2021/12/01 08:50:27;;;;;;;0.30;0.10;;;6.20;99.90;;;;;;5066384;28;20463;-90
2021/12/01 08:52:54;;;;;;;0.30;0.10;;;6.30;99.90;;;;;;5071958;28;20444;-90
2021/12/01 08:55:23;;;;;;;0.30;0.10;;;6.40;99.90;;;;;;5067921;28;20518;-91
2021/12/01 08:57:50;;;;;;;0.30;0.10;;;6.50;99.90;;;;;;5072725;28;20472;-89
2021/12/01 09:00:19;;;;;;;0.30;0.10;;;6.50;99.90;;;;;;5071720;28;20788;-90
2021/12/01 09:02:46;;;;;;;0.30;0.10;;;6.70;99.90;;;;;;5060029;28;20924;-93
2021/12/01 09:05:13;;;;;;;0.30;0.10;;;6.90;99.90;;;;;;5067601;28;20460;-89
2021/12/01 09:07:40;;;;;;;0.30;0.20;;;7.00;99.90;;;;;;5071678;28;20541;-88
2021/12/01 09:10:08;;;;;;;0.30;0.20;;;7.10;99.90;;;;;;5070348;28;20543;-90
2021/12/01 09:12:38;;;;;;;0.30;0.10;;;7.20;99.90;;;;;;5069614;28;20504;-89
2021/12/01 09:15:06;;;;;;;1.27;1.17;;;7.20;99.90;;;;;;5066454;28;20462;-89
2021/12/01 09:17:33;;;;;;;0.30;0.20;;;7.10;99.90;;;;;;5064890;28;20432;-88
2021/12/01 09:20:01;;;;;;;0.30;0.10;;;7.10;99.90;;;;;;5061459;28;20720;-88
2021/12/01 09:22:27;;;;;;;0.30;0.10;;;7.10;99.90;;;;;;5066131;28;20462;-89
2021/12/01 09:24:54;;;;;;;0.30;0.10;;;7.20;99.90;;;;;;5065224;28;20510;-87
2021/12/01 09:27:21;;;;;;;0.30;0.20;;;7.20;99.90;;;;;;5056375;28;20555;-88
2021/12/01 09:29:51;;;;;;;0.30;0.10;;;7.30;99.90;;;;;;5059234;28;20471;-89
2021/12/01 09:32:18;;;;;;;0.30;0.10;;;7.20;99.90;;;;;;5055838;28;20610;-89
2021/12/01 09:34:45;;;;;;;0.40;0.33;;;7.20;99.90;;;;;;5059935;28;20459;-89
2021/12/01 09:37:12;;;;;;;0.30;0.10;;;7.00;99.90;;;;;;5055796;28;20449;-89
2021/12/01 09:39:39;;;;;;;0.30;0.20;;;7.00;99.90;;;;;;5067056;28;20475;-88
2021/12/01 09:42:08;;;;;;;0.30;0.10;;;7.00;99.90;;;;;;5076968;28;20442;-91
2021/12/01 09:44:37;;;;;;;0.40;0.20;;;6.90;99.90;;;;;;5084767;28;20454;-88
2021/12/01 09:47:06;;;;;;;0.30;0.10;;;6.90;99.90;;;;;;5067463;28;20943;-88
2021/12/01 09:49:33;;;;;;;0.30;0.10;;;6.80;99.90;;;;;;5058222;28;20469;-90
2021/12/01 09:52:00;;;;;;;0.30;0.10;;;6.90;99.90;;;;;;5071606;28;20448;-90
2021/12/01 09:54:27;;;;;;;0.30;0.20;;;6.80;99.90;;;;;;5063342;28;20869;-92
2021/12/01 09:56:54;;;;;;;0.30;0.20;;;7.00;99.90;;;;;;5058629;28;20439;-90
2021/12/01 09:59:21;;;;;;;0.30;0.10;;;7.10;99.90;;;;;;5071721;28;20505;-88
2021/12/01 10:01:48;;;;;;;0.30;0.20;;;7.10;99.90;;;;;;5067391;28;20940;-89
2021/12/01 10:04:16;;;;;;;0.30;0.20;;;7.00;99.90;;;;;;5070741;28;21285;-87
2021/12/01 10:06:43;;;;;;;0.30;0.10;;;7.00;99.90;;;;;;5071483;28;20770;-88
2021/12/01 10:09:11;;;;;;;0.30;0.20;;;7.00;99.90;;;;;;5068523;28;20527;-89
2021/12/01 10:11:41;;;;;;;0.30;0.10;;;7.00;99.90;;;;;;5069223;28;20469;-87
2021/12/01 10:14:10;;;;;;;0.30;0.10;;;7.20;99.90;;;;;;5059135;28;21121;-87
2021/12/01 10:16:40;;;;;;;0.30;0.20;;;7.40;99.90;;;;;;5064081;28;20476;-88
2021/12/01 10:19:09;;;;;;;0.30;0.10;;;7.60;99.90;;;;;;5068269;28;20937;-88
2021/12/01 10:21:39;;;;;;;0.30;0.10;;;7.70;99.90;;;;;;5079398;28;20468;-87
2021/12/01 10:24:10;;;;;;;0.30;0.10;;;7.70;99.90;;;;;;5069983;28;20460;-88
2021/12/01 10:26:41;;;;;;;0.30;0.10;;;7.60;99.90;;;;;;5070431;28;20457;-89
2021/12/01 10:29:10;;;;;;;0.30;0.20;;;7.80;99.90;;;;;;5069719;28;20504;-87
2021/12/01 10:31:41;;;;;;;0.30;0.20;;;8.00;99.90;;;;;;5069718;28;20509;-88
2021/12/01 10:34:17;;;;;;;0.30;0.10;;;8.30;99.90;;;;;;5069583;28;20507;-88
2021/12/01 10:36:46;;;;;;;0.30;0.20;;;8.40;99.90;;;;;;5072180;28;20447;-88
2021/12/01 10:39:13;;;;;;;0.30;0.10;;;8.50;99.90;;;;;;5090118;28;20476;-88
2021/12/01 10:41:43;;;;;;;0.30;0.20;;;8.50;99.90;;;;;;5084732;28;20821;-86
2021/12/01 10:44:10;;;;;;;0.30;0.10;;;8.40;99.90;;;;;;5073805;28;20448;-87
2021/12/01 10:46:45;;;;;;;0.30;0.10;;;8.30;99.90;;;;;;5070936;28;20450;-88
2021/12/01 10:49:12;;;;;;;0.30;0.20;;;8.10;99.90;;;;;;5070143;28;21053;-88
2021/12/01 10:51:41;;;;;;;0.30;0.10;;;7.90;99.90;;;;;;5070739;28;20495;-87
2021/12/01 10:54:18;;;;;;;0.30;0.10;;;7.60;99.90;;;;;;5066470;28;20513;-87
2021/12/01 10:56:45;;;;;;;0.30;0.20;;;7.50;99.90;;;;;;5056151;28;20463;-87
2021/12/01 10:59:14;;;;;;;0.30;0.10;;;7.50;99.90;;;;;;5061539;28;21175;-87
2021/12/01 11:01:42;;;;;;;0.30;0.10;;;7.60;99.90;;;;;;5062771;28;20803;-86
2021/12/01 11:04:09;;;;;;;0.30;0.20;;;7.60;99.90;;;;;;5070306;28;20459;-87
2021/12/01 11:06:40;;;;;;;0.30;0.20;;;7.60;99.90;;;;;;5071047;28;20468;-89
2021/12/01 11:09:08;;;;;;;0.40;0.20;;;7.70;99.90;;;;;;5069496;28;20459;-87
2021/12/01 11:11:45;;;;;;;0.30;0.10;;;7.70;99.90;;;;;;5070963;28;20439;-88
2021/12/01 11:14:14;;;;;;;0.30;0.20;;;7.80;99.90;;;;;;5069971;28;20926;-87
2021/12/01 11:16:44;;;;;;;0.30;0.10;;;7.90;99.90;;;;;;5071075;28;20448;-87
2021/12/01 11:19:11;;;;;;;0.30;0.10;;;7.80;99.90;;;;;;5068114;28;20522;-87
2021/12/01 11:21:40;;;;;;;0.30;0.20;;;7.80;99.90;;;;;;5060434;28;20444;-87
2021/12/01 11:24:09;;;;;;;0.30;0.20;;;7.70;99.90;;;;;;5065632;28;20492;-88
2021/12/01 11:26:39;;;;;;;0.30;0.10;;;7.70;99.90;;;;;;5056015;28;20474;-87
2021/12/01 11:29:09;;;;;;;0.30;0.10;;;7.70;99.90;;;;;;5060817;28;20437;-86
2021/12/01 11:31:39;;;;;;;0.30;0.20;;;7.70;99.90;;;;;;5069460;28;20473;-87
2021/12/01 11:34:09;;;;;;;0.30;0.10;;;7.80;99.90;;;;;;5071502;28;20509;-89
2021/12/01 11:36:38;;;;;;;0.50;0.30;;;7.80;99.90;;;;;;5091874;28;21155;-86
2021/12/01 11:39:07;;;;;;;0.30;0.20;;;7.80;99.90;;;;;;5074341;28;20530;-88
2021/12/01 11:41:36;;;;;;;0.30;0.10;;;8.00;99.90;;;;;;5067700;28;20454;-87
2021/12/01 11:44:05;;;;;;;0.30;0.10;;;7.90;99.90;;;;;;5061097;28;20459;-90
2021/12/01 11:46:33;;;;;;;0.30;0.10;;;7.90;99.90;;;;;;5063714;28;21002;-87
2021/12/01 11:49:05;;;;;;;0.30;0.20;;;7.90;99.90;;;;;;5067704;28;20531;-87
2021/12/01 11:51:41;;;;;;;0.30;0.13;;;8.00;99.90;;;;;;5063054;28;20447;-87
2021/12/01 11:54:12;;;;;;;0.30;0.20;;;8.10;99.90;;;;;;5061390;28;21108;-87
2021/12/01 11:56:42;;;;;;;0.30;0.10;;;8.20;99.90;;;;;;5063402;28;20467;-88
2021/12/01 11:59:21;;;;;;;0.30;0.10;;;8.20;99.90;;;;;;5062865;28;20474;-88
2021/12/01 12:02:00;;;;;;;0.30;0.20;;;8.10;99.90;;;;;;5062210;28;20491;-88
2021/12/01 12:04:43;;;;;;;0.30;0.20;;;8.00;99.90;;;;;;5069107;28;20895;-88
2021/12/01 12:07:13;;;;;;;0.30;0.10;;;8.10;99.90;;;;;;5066798;28;20448;-87
2021/12/01 12:09:40;;;;;;;0.30;0.20;;;8.20;99.90;;;;;;5070319;28;20454;-88
2021/12/01 12:12:20;;;;;;;0.30;0.10;;;8.20;99.90;;;;;;5064917;28;20494;-91
2021/12/01 12:14:53;;;;;;;0.30;0.20;;;8.30;99.90;;;;;;5067902;28;20475;-87
2021/12/01 12:17:32;;;;;;;0.30;0.10;;;8.10;99.90;;;;;;5065296;28;20523;-89
2021/12/01 12:20:06;;;;;;;0.30;0.10;;;8.10;99.90;;;;;;5076327;28;20964;-89
2021/12/01 12:22:59;;;;;;;0.30;0.20;;;8.00;99.90;;;;;;5065500;28;20461;-88
2021/12/01 12:25:42;;;;;;;0.30;0.10;;;7.90;99.90;;;;;;5055211;28;20479;-90
2021/12/01 12:28:33;;;;;;;0.30;0.10;;;7.80;99.90;;;;;;5056403;28;20463;-88
2021/12/01 12:31:03;;;;;;;0.30;0.10;;;7.80;99.90;;;;;;5072092;28;20467;-88
2021/12/01 12:33:34;;;;;;;0.30;0.10;;;7.90;99.90;;;;;;5089817;28;20435;-87
2021/12/01 12:36:04;;;;;;;0.30;0.10;;;8.10;99.90;;;;;;5068359;28;20526;-88
2021/12/01 12:38:32;;;;;;;0.30;0.10;;;8.30;99.90;;;;;;5069743;28;20439;-88
2021/12/01 12:41:08;;;;;;;0.30;0.10;;;8.50;99.90;;;;;;5067128;28;20510;-88
2021/12/01 12:43:36;;;;;;;0.30;0.20;;;8.80;99.90;;;;;;5065962;28;20460;-87
2021/12/01 12:46:07;;;;;;;0.30;0.10;;;8.90;99.90;;;;;;5066163;28;20513;-90
2021/12/01 12:48:37;;;;;;;0.30;0.20;;;8.80;99.90;;;;;;5062762;28;20498;-91
2021/12/01 12:51:12;;;;;;;0.30;0.10;;;8.80;99.90;;;;;;5071447;28;20456;-88
2021/12/01 12:54:14;;;;;;;0.30;0.20;;;8.60;99.90;;;;;;5072087;28;20446;-87
2021/12/01 12:56:45;;;;;;;0.30;0.17;;;8.40;99.90;;;;;;5067328;28;20512;-95
2021/12/01 12:59:23;;;;;;;0.30;0.10;;;8.20;99.90;;;;;;5067851;28;20515;-88
2021/12/01 13:01:52;;;;;;;0.30;0.10;;;8.00;99.90;;;;;;5070156;28;20460;-88
2021/12/01 13:04:58;;;;;;;0.30;0.10;;;7.90;99.90;;;;;;5071460;28;20446;-89
2021/12/01 13:07:45;;;;;;;0.30;0.20;;;7.70;99.90;;;;;;5071941;28;20437;-91
2021/12/01 13:10:17;;;;;;;0.40;0.37;;;7.70;99.90;;;;;;5067887;28;20451;-88
2021/12/01 13:12:46;;;;;;;0.30;0.20;;;7.80;99.90;;;;;;5071672;28;20436;-88